HOURLY OBSERVATIONS


Time
(EST)
Temperature
°F
Dew Point
°F
Humidity
%
Wind
mph
Pressure
mb
Precip.
Hour
in
Precip.
Day
in
6 Hr
Max Temp
°F
6 Hr
Min Temp
°F
23 00:00 65 64 94 NNE 2 G 4 1009.8 0.02
22 23:00 65 63 93 NE 0 G 5 1009.8 0.02
22 22:00 66 64 92 NNE 2 G 4 1009.6 0.01 0.02
22 21:00 67 64 89 NNE 1 G 4 1009.5 0.01 0.01
22 20:00 69 64 84 NNE 1 G 6 1009.1 0.00
22 19:00 71 65 82 NE 4 G 8 1008.3 0.00 77 71
22 18:00 74 66 78 N 2 G 7 1007.6 0.00
22 17:00 76 67 75 NE 5 G 10 1006.9 0.00
22 16:00 75 67 75 NNW 2 G 5 1006.9 0.00
22 15:00 76 67 73 N 4 G 10 1006.8 0.00
22 14:00 76 66 71 NNE 2 G 7 1006.7 0.00
22 13:00 74 66 75 NE 2 G 5 1007.0 0.00 74 64
22 12:00 73 65 75 NNE 1 G 4 1007.0 0.00
22 11:00 72 64 77 SSW 0 G 1 1006.4 0.00
22 10:00 70 63 78 ESE 0 G 5 1006.4 0.00
22 09:00 68 62 81 NNE 0 G 5 1006.2 0.00
22 08:00 66 61 84 ENE 1 G 5 1006.6 0.00
22 07:00 64 60 88 NE 2 G 3 1006.6 0.00 67 63
22 06:00 63 60 88 NE 1 G 4 1006.2 0.00
22 05:00 64 60 87 E 2 G 5 1005.9 0.00
22 04:00 64 60 86 E 0 G 4 1005.8 0.00
22 03:00 65 60 85 E 1 G 5 1005.8 0.00
22 02:00 66 61 84 ENE 2 G 5 1006.4 0.00
22 01:00 67 61 82 E 1 G 9 1006.5 0.00 77 67
22 00:00 69 62 81 E 2 G 9 1007.1 0.04
21 23:00 70 64 81 ENE 2 G 12 1007.3 0.04
21 22:00 71 65 81 E 5 G 8 1007.6 0.04
21 21:00 73 66 78 E 6 G 11 1007.4 0.04
21 20:00 75 67 75 ENE 1 G 9 1007.2 0.04
21 19:00 77 66 70 E 0 G 9 1006.8 0.04 79 75
21 18:00 78 67 69 S 2 G 15 1006.7 0.04
21 17:00 78 66 67 S 3 G 16 1006.7 0.04
21 16:00 78 66 67 SSE 3 G 15 1006.7 0.04
21 15:00 78 66 67 SSE 5 G 9 1006.9 0.04
21 14:00 77 66 68 SW 4 G 9 1007.1 0.04
21 13:00 75 66 72 SSW 2 G 11 1007.6 0.04 75 65
21 12:00 73 65 77 S 5 G 16 1008.2 0.04
21 11:00 71 64 81 SSW 8 G 13 1008.8 0.04
21 10:00 69 64 83 S 7 G 19 1008.6 0.04
21 09:00 67 63 89 S 4 G 11 1008.7 0.04
21 08:00 66 63 90 SSW 2 G 15 1008.4 0.04
21 07:00 65 63 92 SSE 1 G 9 1008.0 0.02 0.04 70 65
21 06:00 67 63 87 S 2 G 15 1008.1 0.02 0.02
21 05:00 68 62 83 SW 1 G 11 1008.0 0.00
21 04:00 68 63 84 S 3 G 10 1008.1 0.00
21 03:00 68 63 83 S 3 G 11 1008.3 0.00
21 02:00 69 64 83 S 4 G 10 1008.6 0.00
21 01:00 70 64 81 SW 6 G 11 1008.7 0.00 77 70
21 00:00 72 65 79 SSW 2 G 8 1008.9 0.02
20 23:00 73 65 76 SSE 2 G 16 1008.5 0.02
20 22:00 73 66 77 S 2 G 9 1008.5 0.02
20 21:00 74 67 78 SSE 1 G 5 1008.5 0.02
20 20:00 76 67 73 S 5 G 20 1008.2 0.02
20 19:00 77 67 71 S 4 G 14 1008.5 0.02 78 73
20 18:00 77 68 75 S 5 G 12 1008.8 0.02
20 17:00 78 67 71 SSW 5 G 17 1009.1 0.02
20 16:00 74 66 78 SSW 4 G 8 1010.6 0.02
20 15:00 75 67 77 SSW 5 G 14 1011.1 0.02
20 14:00 75 68 79 SW 5 G 11 1011.1 0.02
20 13:00 76 70 83 S 6 G 15 1011.6 0.02 81 72
20 12:00 76 70 80 SSW 2 G 11 1012.3 0.02 0.02
20 11:00 80 69 68 SW 6 G 12 1012.1 0.00
20 10:00 78 67 68 SSW 3 G 17 1012.3 0.00
20 09:00 78 66 67 SW 4 G 15 1012.5 0.00
20 08:00 75 65 70 S 5 G 17 1013.0 0.00
20 07:00 72 63 75 SSW 6 G 11 1013.1 0.00 72 69
20 06:00 70 62 78 SSE 2 G 8 1013.2 0.00
20 05:00 69 62 78 S 2 G 6 1013.1 0.00
20 04:00 70 61 75 S 2 G 6 1013.2 0.00
20 03:00 70 61 72 S 2 G 5 1013.5 0.00
20 02:00 70 60 70 SSE 0 G 4 1013.4 0.00
20 01:00 71 60 70 SSE 0 G 4 1013.6 0.00 80 71